Etusivu
METAR-TAF:

METAR-TAF

Lentoasemat :

Brownwood, Texas, Yhdysvallat

Leveyspiiri: 31-48N, Pituuspiiri: 098-57W, korkeus merenpinnasta: 422 m

Tämänhetkinen sää

Tämä raportti tehtiin 21 minuuttia sitten, kello 16.15 UTC
Tuuli 9 kn etelästä/lounaasta
Lämpötila 22°C
Kosteus 60%
Ilmanpaine 1017 hPa
Näkyvyys: 16.1 km
Hajanaisia pilviä 10000 ft:n korkeudessa

METAR: KBWD 141615Z AUTO 21009KT 10SM SCT100 22/14 A3003 RMK AO1

Aika: 11:36 (16:36 UTC)


TAF: puuttuu

Säähavainnot ja -ennusteet yli 4000 lentoasemalta (METAR- ja TAF-raportit).

Käytössä olevat sääasemat on merkitty karttaan keltaisilla ja punaisilla pisteillä.

Aseta hiiri pisteen päälle nähdäksesi sääaseman nimen.

Klikkaa sitten nähdäksesi säähavainnot ja -ennusteet.

Kartan vaihtaminen: klikkaa mustalla rastilla varustettuja vihreitä pisteitä, niin voit zoomata sisään; viivalla varustettua vihreää pistettä, niin voit zoomata ulos tai vihreitä nuolia, niin pääset viereisille kartoille.


METAR-TAF: